sensor_id;sensor_type;location;lat;lon;timestamp;pressure;altitude;pressure_sealevel;temperature;humidity
56272;BME280;42177;48.914;18.160;2023-05-22T00:01:44;985.7;;;14.9;100
56272;BME280;42177;48.914;18.160;2023-05-22T00:06:44;985.8;;;15.4;100
56272;BME280;42177;48.914;18.160;2023-05-22T00:11:44;985.8;;;15.4;100
56272;BME280;42177;48.914;18.160;2023-05-22T00:16:44;985.7;;;14.7;100
56272;BME280;42177;48.914;18.160;2023-05-22T00:21:44;985.7;;;14.7;100
56272;BME280;42177;48.914;18.160;2023-05-22T00:26:44;985.6;;;14.7;100
56272;BME280;42177;48.914;18.160;2023-05-22T00:31:44;985.6;;;14.7;100
56272;BME280;42177;48.914;18.160;2023-05-22T00:36:44;985.7;;;14.8;100
56272;BME280;42177;48.914;18.160;2023-05-22T00:41:44;985.7;;;14.8;100
56272;BME280;42177;48.914;18.160;2023-05-22T00:46:44;985.7;;;14.6;100
56272;BME280;42177;48.914;18.160;2023-05-22T00:51:44;985.7;;;14.6;100
56272;BME280;42177;48.914;18.160;2023-05-22T00:56:44;985.6;;;14.9;100
56272;BME280;42177;48.914;18.160;2023-05-22T01:01:44;985.6;;;14.9;100
56272;BME280;42177;48.914;18.160;2023-05-22T01:06:44;985.7;;;15;100
56272;BME280;42177;48.914;18.160;2023-05-22T01:11:46;985.7;;;15;100
56272;BME280;42177;48.914;18.160;2023-05-22T01:16:44;985.6;;;14.8;100
56272;BME280;42177;48.914;18.160;2023-05-22T01:21:46;985.6;;;14.8;100
56272;BME280;42177;48.914;18.160;2023-05-22T01:26:50;985.6;;;14.5;100
56272;BME280;42177;48.914;18.160;2023-05-22T01:31:44;985.6;;;14.5;100
56272;BME280;42177;48.914;18.160;2023-05-22T01:36:44;985.6;;;14.6;100
56272;BME280;42177;48.914;18.160;2023-05-22T01:41:44;985.6;;;14.6;100
56272;BME280;42177;48.914;18.160;2023-05-22T01:46:44;985.7;;;14.4;100
56272;BME280;42177;48.914;18.160;2023-05-22T01:51:46;985.7;;;14.4;100
56272;BME280;42177;48.914;18.160;2023-05-22T01:56:45;985.7;;;14.3;100
56272;BME280;42177;48.914;18.160;2023-05-22T02:01:44;985.7;;;14.3;100
56272;BME280;42177;48.914;18.160;2023-05-22T02:06:44;985.7;;;14.5;100
56272;BME280;42177;48.914;18.160;2023-05-22T02:11:44;985.7;;;14.5;100
56272;BME280;42177;48.914;18.160;2023-05-22T02:16:44;985.7;;;14.1;100
56272;BME280;42177;48.914;18.160;2023-05-22T02:21:44;985.7;;;14.1;100
56272;BME280;42177;48.914;18.160;2023-05-22T02:26:44;985.7;;;14;100
56272;BME280;42177;48.914;18.160;2023-05-22T02:31:44;985.7;;;14;100
56272;BME280;42177;48.914;18.160;2023-05-22T02:36:44;985.7;;;14.2;100
56272;BME280;42177;48.914;18.160;2023-05-22T02:41:44;985.7;;;14.2;100
56272;BME280;42177;48.914;18.160;2023-05-22T02:46:44;985.6;;;14;100
56272;BME280;42177;48.914;18.160;2023-05-22T02:51:44;985.6;;;14;100
56272;BME280;42177;48.914;18.160;2023-05-22T02:56:44;985.5;;;14.3;100
56272;BME280;42177;48.914;18.160;2023-05-22T03:01:44;985.5;;;14.3;100
56272;BME280;42177;48.914;18.160;2023-05-22T03:06:44;985.6;;;14.3;100
56272;BME280;42177;48.914;18.160;2023-05-22T03:11:44;985.6;;;14.3;100
56272;BME280;42177;48.914;18.160;2023-05-22T03:16:44;985.5;;;14.5;100
56272;BME280;42177;48.914;18.160;2023-05-22T03:21:44;985.5;;;14.5;100
56272;BME280;42177;48.914;18.160;2023-05-22T03:26:44;985.6;;;14.5;100
56272;BME280;42177;48.914;18.160;2023-05-22T03:31:44;985.6;;;14.5;100
56272;BME280;42177;48.914;18.160;2023-05-22T03:36:44;985.5;;;14.7;100
56272;BME280;42177;48.914;18.160;2023-05-22T03:41:44;985.5;;;14.7;100
56272;BME280;42177;48.914;18.160;2023-05-22T03:46:44;985.6;;;14.4;100
56272;BME280;42177;48.914;18.160;2023-05-22T03:51:44;985.6;;;14.4;100
56272;BME280;42177;48.914;18.160;2023-05-22T03:56:44;985.4;;;14.8;100
56272;BME280;42177;48.914;18.160;2023-05-22T04:01:44;985.4;;;14.8;100
56272;BME280;42177;48.914;18.160;2023-05-22T04:06:44;985.6;;;15;100
56272;BME280;42177;48.914;18.160;2023-05-22T04:11:44;985.6;;;15;100
56272;BME280;42177;48.914;18.160;2023-05-22T04:16:44;985.5;;;15;100
56272;BME280;42177;48.914;18.160;2023-05-22T04:21:44;985.5;;;15;100
56272;BME280;42177;48.914;18.160;2023-05-22T04:26:44;985.5;;;15.2;100
56272;BME280;42177;48.914;18.160;2023-05-22T04:31:44;985.5;;;15.2;100
56272;BME280;42177;48.914;18.160;2023-05-22T04:36:44;985.5;;;15.5;100
56272;BME280;42177;48.914;18.160;2023-05-22T04:41:44;985.5;;;15.5;100
56272;BME280;42177;48.914;18.160;2023-05-22T04:46:44;985.5;;;15.7;100
56272;BME280;42177;48.914;18.160;2023-05-22T04:51:44;985.5;;;15.7;100
56272;BME280;42177;48.914;18.160;2023-05-22T04:56:44;985.5;;;16.1;100
56272;BME280;42177;48.914;18.160;2023-05-22T05:01:44;985.5;;;16.1;100
56272;BME280;42177;48.914;18.160;2023-05-22T05:06:44;985.6;;;16;100
56272;BME280;42177;48.914;18.160;2023-05-22T05:11:44;985.6;;;16;100
56272;BME280;42177;48.914;18.160;2023-05-22T05:16:44;985.5;;;16.3;100
56272;BME280;42177;48.914;18.160;2023-05-22T05:21:44;985.5;;;16.3;100
56272;BME280;42177;48.914;18.160;2023-05-22T05:26:44;985.6;;;16.6;100
56272;BME280;42177;48.914;18.160;2023-05-22T05:31:44;985.6;;;16.6;100
56272;BME280;42177;48.914;18.160;2023-05-22T05:36:44;985.5;;;16.6;100
56272;BME280;42177;48.914;18.160;2023-05-22T05:41:44;985.5;;;16.6;100
56272;BME280;42177;48.914;18.160;2023-05-22T05:46:44;985.5;;;16.8;100
56272;BME280;42177;48.914;18.160;2023-05-22T05:51:44;985.5;;;16.8;100
56272;BME280;42177;48.914;18.160;2023-05-22T05:56:44;985.5;;;17.1;100
56272;BME280;42177;48.914;18.160;2023-05-22T06:01:44;985.5;;;17.1;100
56272;BME280;42177;48.914;18.160;2023-05-22T06:06:44;985.3;;;17.6;97.5
56272;BME280;42177;48.914;18.160;2023-05-22T06:11:44;985.3;;;17.6;97.5
56272;BME280;42177;48.914;18.160;2023-05-22T06:16:44;985.4;;;17.9;93.8
56272;BME280;42177;48.914;18.160;2023-05-22T06:21:44;985.4;;;17.9;93.8
56272;BME280;42177;48.914;18.160;2023-05-22T06:26:44;985.3;;;18.3;94.6
56272;BME280;42177;48.914;18.160;2023-05-22T06:31:44;985.3;;;18.3;94.6
56272;BME280;42177;48.914;18.160;2023-05-22T06:36:44;985.3;;;18.5;91.9
56272;BME280;42177;48.914;18.160;2023-05-22T06:41:44;985.3;;;18.5;91.9
56272;BME280;42177;48.914;18.160;2023-05-22T06:46:44;985.3;;;18.7;89.7
56272;BME280;42177;48.914;18.160;2023-05-22T06:51:44;985.3;;;18.7;89.7
56272;BME280;42177;48.914;18.160;2023-05-22T06:56:44;985.3;;;19.4;86.8
56272;BME280;42177;48.914;18.160;2023-05-22T07:01:44;985.3;;;19.4;86.8
56272;BME280;42177;48.914;18.160;2023-05-22T07:06:44;985.2;;;19.3;85.4
56272;BME280;42177;48.914;18.160;2023-05-22T07:11:44;985.2;;;19.3;85.4
56272;BME280;42177;48.914;18.160;2023-05-22T07:16:44;985.1;;;19.7;83.4
56272;BME280;42177;48.914;18.160;2023-05-22T07:21:44;985.1;;;19.7;83.4
56272;BME280;42177;48.914;18.160;2023-05-22T07:26:44;985.2;;;20.1;82.8
56272;BME280;42177;48.914;18.160;2023-05-22T07:31:44;985.2;;;20.1;82.8
56272;BME280;42177;48.914;18.160;2023-05-22T07:36:44;985.1;;;20.2;80.6
56272;BME280;42177;48.914;18.160;2023-05-22T07:41:46;985.1;;;20.2;80.6
56272;BME280;42177;48.914;18.160;2023-05-22T07:46:44;985;;;20.5;80.5
56272;BME280;42177;48.914;18.160;2023-05-22T07:51:44;985;;;20.5;80.5
56272;BME280;42177;48.914;18.160;2023-05-22T07:56:44;985;;;21;78.8
56272;BME280;42177;48.914;18.160;2023-05-22T08:01:44;985;;;21;78.8
56272;BME280;42177;48.914;18.160;2023-05-22T08:06:44;984.9;;;21.4;73.9
56272;BME280;42177;48.914;18.160;2023-05-22T08:11:44;984.9;;;21.4;73.9
56272;BME280;42177;48.914;18.160;2023-05-22T08:16:44;984.9;;;21.7;71.3
56272;BME280;42177;48.914;18.160;2023-05-22T08:21:44;984.9;;;21.7;71.3
56272;BME280;42177;48.914;18.160;2023-05-22T08:26:44;985;;;22.1;66.9
56272;BME280;42177;48.914;18.160;2023-05-22T08:31:44;985;;;22.1;66.9
56272;BME280;42177;48.914;18.160;2023-05-22T08:36:44;985;;;22.3;65.4
56272;BME280;42177;48.914;18.160;2023-05-22T08:41:44;985;;;22.3;65.4
56272;BME280;42177;48.914;18.160;2023-05-22T08:46:45;984.9;;;22.8;61.3
56272;BME280;42177;48.914;18.160;2023-05-22T08:51:46;984.9;;;22.8;61.3
56272;BME280;42177;48.914;18.160;2023-05-22T08:56:44;984.8;;;23.3;58.8
56272;BME280;42177;48.914;18.160;2023-05-22T09:01:44;984.8;;;23.3;58.8
56272;BME280;42177;48.914;18.160;2023-05-22T09:06:45;984.7;;;23.5;50.8
56272;BME280;42177;48.914;18.160;2023-05-22T09:11:44;984.7;;;23.5;50.8
56272;BME280;42177;48.914;18.160;2023-05-22T09:16:44;984.6;;;23.5;49.9
56272;BME280;42177;48.914;18.160;2023-05-22T09:21:44;984.6;;;23.5;49.9
56272;BME280;42177;48.914;18.160;2023-05-22T09:26:44;984.6;;;24;46.7
56272;BME280;42177;48.914;18.160;2023-05-22T09:31:44;984.6;;;24;46.7
56272;BME280;42177;48.914;18.160;2023-05-22T09:36:44;984.5;;;24.6;44.5
56272;BME280;42177;48.914;18.160;2023-05-22T09:41:44;984.5;;;24.6;44.5
56272;BME280;42177;48.914;18.160;2023-05-22T09:46:44;984.5;;;24.8;46.7
56272;BME280;42177;48.914;18.160;2023-05-22T09:51:44;984.5;;;24.8;46.7
56272;BME280;42177;48.914;18.160;2023-05-22T09:56:44;984.3;;;25.1;47.1
56272;BME280;42177;48.914;18.160;2023-05-22T10:01:44;984.3;;;25.1;47.1
56272;BME280;42177;48.914;18.160;2023-05-22T10:06:44;984.3;;;25.6;48.1
56272;BME280;42177;48.914;18.160;2023-05-22T10:11:44;984.3;;;25.6;48.1
56272;BME280;42177;48.914;18.160;2023-05-22T10:16:44;984.2;;;26;44.2
56272;BME280;42177;48.914;18.160;2023-05-22T10:21:44;984.2;;;26;44.2
56272;BME280;42177;48.914;18.160;2023-05-22T10:26:44;984.1;;;25.6;45.7
56272;BME280;42177;48.914;18.160;2023-05-22T10:31:45;984.1;;;25.6;45.7
56272;BME280;42177;48.914;18.160;2023-05-22T10:36:47;984.1;;;26.1;44.5
56272;BME280;42177;48.914;18.160;2023-05-22T10:41:44;984.1;;;26.1;44.5
56272;BME280;42177;48.914;18.160;2023-05-22T10:46:47;984;;;26.1;46.5
56272;BME280;42177;48.914;18.160;2023-05-22T10:51:44;984;;;26.1;46.5
56272;BME280;42177;48.914;18.160;2023-05-22T10:56:44;983.9;;;26.2;43.6
56272;BME280;42177;48.914;18.160;2023-05-22T11:01:44;983.9;;;26.2;43.6
56272;BME280;42177;48.914;18.160;2023-05-22T11:06:45;983.8;;;25.8;44.4
56272;BME280;42177;48.914;18.160;2023-05-22T11:11:44;983.8;;;25.8;44.4
56272;BME280;42177;48.914;18.160;2023-05-22T11:16:44;983.6;;;25.9;45.1
56272;BME280;42177;48.914;18.160;2023-05-22T11:21:44;983.6;;;25.9;45.1
56272;BME280;42177;48.914;18.160;2023-05-22T11:26:44;983.7;;;26.6;44.6
56272;BME280;42177;48.914;18.160;2023-05-22T11:31:44;983.7;;;26.6;44.6
56272;BME280;42177;48.914;18.160;2023-05-22T11:36:44;983.5;;;26.8;45.5
56272;BME280;42177;48.914;18.160;2023-05-22T11:41:44;983.5;;;26.8;45.5
56272;BME280;42177;48.914;18.160;2023-05-22T11:46:44;983.4;;;26.9;43.5
56272;BME280;42177;48.914;18.160;2023-05-22T11:51:44;983.4;;;26.9;43.5
56272;BME280;42177;48.914;18.160;2023-05-22T11:56:44;983.2;;;27.4;43
56272;BME280;42177;48.914;18.160;2023-05-22T12:01:44;983.2;;;27.4;43
56272;BME280;42177;48.914;18.160;2023-05-22T12:06:44;983.1;;;27;45.1
56272;BME280;42177;48.914;18.160;2023-05-22T12:11:44;983.1;;;27;45.1
56272;BME280;42177;48.914;18.160;2023-05-22T12:16:44;983.1;;;27.4;45.6
56272;BME280;42177;48.914;18.160;2023-05-22T12:21:44;983.1;;;27.4;45.6
56272;BME280;42177;48.914;18.160;2023-05-22T12:26:48;983.1;;;28;45.2
56272;BME280;42177;48.914;18.160;2023-05-22T12:31:44;983.1;;;28;45.2
56272;BME280;42177;48.914;18.160;2023-05-22T12:36:45;983;;;26.7;43.8
56272;BME280;42177;48.914;18.160;2023-05-22T12:41:44;983;;;26.7;43.8
56272;BME280;42177;48.914;18.160;2023-05-22T12:46:44;982.8;;;25.9;46.5
56272;BME280;42177;48.914;18.160;2023-05-22T12:51:44;982.8;;;25.9;46.5
56272;BME280;42177;48.914;18.160;2023-05-22T12:56:44;982.9;;;25.6;46.5
56272;BME280;42177;48.914;18.160;2023-05-22T13:01:44;982.9;;;25.6;46.5
56272;BME280;42177;48.914;18.160;2023-05-22T13:06:44;982.9;;;25.4;48
56272;BME280;42177;48.914;18.160;2023-05-22T13:11:44;982.9;;;25.4;48
56272;BME280;42177;48.914;18.160;2023-05-22T13:16:44;982.9;;;24.5;52.4
56272;BME280;42177;48.914;18.160;2023-05-22T13:21:44;982.9;;;24.5;52.4
56272;BME280;42177;48.914;18.160;2023-05-22T13:26:44;982.9;;;24.2;57.1
56272;BME280;42177;48.914;18.160;2023-05-22T13:31:44;982.9;;;24.2;57.1
56272;BME280;42177;48.914;18.160;2023-05-22T13:36:44;982.9;;;23.8;58
56272;BME280;42177;48.914;18.160;2023-05-22T13:41:44;982.9;;;23.8;58
56272;BME280;42177;48.914;18.160;2023-05-22T13:46:44;983.5;;;22.7;62.4
56272;BME280;42177;48.914;18.160;2023-05-22T13:51:44;983.5;;;22.7;62.4
56272;BME280;42177;48.914;18.160;2023-05-22T13:56:44;983.8;;;21.4;70.5
56272;BME280;42177;48.914;18.160;2023-05-22T14:01:44;983.8;;;21.4;70.5
56272;BME280;42177;48.914;18.160;2023-05-22T14:06:44;983.7;;;21.4;73.5
56272;BME280;42177;48.914;18.160;2023-05-22T14:11:44;983.7;;;21.4;73.5
56272;BME280;42177;48.914;18.160;2023-05-22T14:16:44;983.9;;;20.6;86.5
56272;BME280;42177;48.914;18.160;2023-05-22T14:21:45;983.9;;;20.6;86.5
56272;BME280;42177;48.914;18.160;2023-05-22T14:26:44;983.6;;;20.3;95.9
56272;BME280;42177;48.914;18.160;2023-05-22T14:31:44;983.6;;;20.3;95.9
56272;BME280;42177;48.914;18.160;2023-05-22T14:36:44;983.4;;;19.8;100
56272;BME280;42177;48.914;18.160;2023-05-22T14:41:44;983.4;;;19.8;100
56272;BME280;42177;48.914;18.160;2023-05-22T14:46:44;983.1;;;19.5;100
56272;BME280;42177;48.914;18.160;2023-05-22T14:51:44;983.1;;;19.5;100
56272;BME280;42177;48.914;18.160;2023-05-22T14:56:44;983.1;;;20.4;99.4
56272;BME280;42177;48.914;18.160;2023-05-22T15:01:44;983.1;;;20.4;99.4
56272;BME280;42177;48.914;18.160;2023-05-22T15:06:44;983.1;;;20.8;99.1
56272;BME280;42177;48.914;18.160;2023-05-22T15:11:44;983.1;;;20.8;99.1
56272;BME280;42177;48.914;18.160;2023-05-22T15:16:44;983;;;22.5;91.3
56272;BME280;42177;48.914;18.160;2023-05-22T15:21:44;983;;;22.5;91.3
56272;BME280;42177;48.914;18.160;2023-05-22T15:26:44;982.9;;;22.5;88.1
56272;BME280;42177;48.914;18.160;2023-05-22T15:31:44;982.9;;;22.5;88.1
56272;BME280;42177;48.914;18.160;2023-05-22T15:36:44;982.9;;;24.5;81.7
56272;BME280;42177;48.914;18.160;2023-05-22T15:41:44;982.9;;;24.5;81.7
56272;BME280;42177;48.914;18.160;2023-05-22T15:46:44;982.8;;;24.6;82.2
56272;BME280;42177;48.914;18.160;2023-05-22T15:51:44;982.8;;;24.6;82.2
56272;BME280;42177;48.914;18.160;2023-05-22T15:56:44;982.9;;;23.8;86.8
56272;BME280;42177;48.914;18.160;2023-05-22T16:01:44;982.9;;;23.8;86.8
56272;BME280;42177;48.914;18.160;2023-05-22T16:06:44;982.8;;;24.3;82.7
56272;BME280;42177;48.914;18.160;2023-05-22T16:11:44;982.8;;;24.3;82.7
56272;BME280;42177;48.914;18.160;2023-05-22T16:16:44;982.7;;;22.5;86.8
56272;BME280;42177;48.914;18.160;2023-05-22T16:21:44;982.7;;;22.5;86.8
56272;BME280;42177;48.914;18.160;2023-05-22T16:26:44;982.8;;;21.8;92.7
56272;BME280;42177;48.914;18.160;2023-05-22T16:31:44;982.8;;;21.8;92.7
56272;BME280;42177;48.914;18.160;2023-05-22T16:36:44;982.9;;;21.5;95.3
56272;BME280;42177;48.914;18.160;2023-05-22T16:41:44;982.9;;;21.5;95.3
56272;BME280;42177;48.914;18.160;2023-05-22T16:46:44;982.9;;;21.6;97.1
56272;BME280;42177;48.914;18.160;2023-05-22T16:51:44;982.9;;;21.6;97.1
56272;BME280;42177;48.914;18.160;2023-05-22T16:56:44;982.9;;;21.2;97.6
56272;BME280;42177;48.914;18.160;2023-05-22T17:01:44;982.9;;;21.2;97.6
56272;BME280;42177;48.914;18.160;2023-05-22T17:06:44;983;;;20.7;97.3
56272;BME280;42177;48.914;18.160;2023-05-22T17:11:44;983;;;20.7;97.3
56272;BME280;42177;48.914;18.160;2023-05-22T17:16:44;982.9;;;20.4;99.7
56272;BME280;42177;48.914;18.160;2023-05-22T17:21:44;982.9;;;20.4;99.7
56272;BME280;42177;48.914;18.160;2023-05-22T17:26:44;982.9;;;20.4;100
56272;BME280;42177;48.914;18.160;2023-05-22T17:31:44;982.9;;;20.4;100
56272;BME280;42177;48.914;18.160;2023-05-22T17:36:44;982.8;;;19.9;100
56272;BME280;42177;48.914;18.160;2023-05-22T17:41:44;982.8;;;19.9;100
56272;BME280;42177;48.914;18.160;2023-05-22T17:46:44;982.8;;;19.7;100
56272;BME280;42177;48.914;18.160;2023-05-22T17:51:44;982.8;;;19.7;100
56272;BME280;42177;48.914;18.160;2023-05-22T17:56:44;982.7;;;19.5;100
56272;BME280;42177;48.914;18.160;2023-05-22T18:01:44;982.7;;;19.5;100
56272;BME280;42177;48.914;18.160;2023-05-22T18:06:44;982.8;;;19.4;100
56272;BME280;42177;48.914;18.160;2023-05-22T18:11:44;982.8;;;19.4;100
56272;BME280;42177;48.914;18.160;2023-05-22T18:16:44;982.7;;;19;100
56272;BME280;42177;48.914;18.160;2023-05-22T18:21:44;982.7;;;19;100
56272;BME280;42177;48.914;18.160;2023-05-22T18:26:44;982.7;;;18.9;100
56272;BME280;42177;48.914;18.160;2023-05-22T18:31:44;982.7;;;18.9;100
56272;BME280;42177;48.914;18.160;2023-05-22T18:36:44;982.8;;;18.6;100
56272;BME280;42177;48.914;18.160;2023-05-22T18:41:44;982.8;;;18.6;100
56272;BME280;42177;48.914;18.160;2023-05-22T18:46:44;982.8;;;18.3;100
56272;BME280;42177;48.914;18.160;2023-05-22T18:51:44;982.8;;;18.3;100
56272;BME280;42177;48.914;18.160;2023-05-22T18:56:44;982.9;;;18.4;100
56272;BME280;42177;48.914;18.160;2023-05-22T19:01:44;982.9;;;18.4;100
56272;BME280;42177;48.914;18.160;2023-05-22T19:06:44;983;;;18.4;100
56272;BME280;42177;48.914;18.160;2023-05-22T19:11:44;983;;;18.4;100
56272;BME280;42177;48.914;18.160;2023-05-22T19:16:44;983.1;;;18.2;100
56272;BME280;42177;48.914;18.160;2023-05-22T19:21:44;983.1;;;18.2;100
56272;BME280;42177;48.914;18.160;2023-05-22T19:26:44;983.1;;;18.1;100
56272;BME280;42177;48.914;18.160;2023-05-22T19:31:44;983.1;;;18.1;100
56272;BME280;42177;48.914;18.160;2023-05-22T19:36:44;983;;;18.2;100
56272;BME280;42177;48.914;18.160;2023-05-22T19:41:44;983;;;18.2;100
56272;BME280;42177;48.914;18.160;2023-05-22T19:46:44;983.1;;;18.1;100
56272;BME280;42177;48.914;18.160;2023-05-22T19:51:44;983.1;;;18.1;100
56272;BME280;42177;48.914;18.160;2023-05-22T19:56:44;983.1;;;17.9;100
56272;BME280;42177;48.914;18.160;2023-05-22T20:01:44;983.1;;;17.9;100
56272;BME280;42177;48.914;18.160;2023-05-22T20:06:44;983;;;17.8;100
56272;BME280;42177;48.914;18.160;2023-05-22T20:11:44;983;;;17.8;100
56272;BME280;42177;48.914;18.160;2023-05-22T20:16:44;983;;;17.6;100
56272;BME280;42177;48.914;18.160;2023-05-22T20:21:44;983;;;17.6;100
56272;BME280;42177;48.914;18.160;2023-05-22T20:26:44;983.1;;;17.5;100
56272;BME280;42177;48.914;18.160;2023-05-22T20:31:44;983.1;;;17.5;100
56272;BME280;42177;48.914;18.160;2023-05-22T20:36:44;983.2;;;17.5;100
56272;BME280;42177;48.914;18.160;2023-05-22T20:41:45;983.2;;;17.5;100
56272;BME280;42177;48.914;18.160;2023-05-22T20:46:44;983.1;;;17.4;100
56272;BME280;42177;48.914;18.160;2023-05-22T20:51:44;983.1;;;17.4;100
56272;BME280;42177;48.914;18.160;2023-05-22T20:56:44;983.1;;;17;100
56272;BME280;42177;48.914;18.160;2023-05-22T21:01:44;983.1;;;17;100
56272;BME280;42177;48.914;18.160;2023-05-22T21:06:44;983.2;;;17.1;100
56272;BME280;42177;48.914;18.160;2023-05-22T21:11:44;983.2;;;17.1;100
56272;BME280;42177;48.914;18.160;2023-05-22T21:16:44;983.2;;;17;100
56272;BME280;42177;48.914;18.160;2023-05-22T21:21:45;983.2;;;17;100
56272;BME280;42177;48.914;18.160;2023-05-22T21:26:44;983.2;;;16.7;100
56272;BME280;42177;48.914;18.160;2023-05-22T21:31:44;983.2;;;16.7;100
56272;BME280;42177;48.914;18.160;2023-05-22T21:36:44;983.3;;;16.5;100
56272;BME280;42177;48.914;18.160;2023-05-22T21:41:44;983.3;;;16.5;100
56272;BME280;42177;48.914;18.160;2023-05-22T21:46:44;983.3;;;16.5;100
56272;BME280;42177;48.914;18.160;2023-05-22T21:51:44;983.3;;;16.5;100
56272;BME280;42177;48.914;18.160;2023-05-22T21:56:44;983.3;;;16.3;100
56272;BME280;42177;48.914;18.160;2023-05-22T22:01:44;983.3;;;16.3;100
56272;BME280;42177;48.914;18.160;2023-05-22T22:06:44;983.3;;;16.5;100
56272;BME280;42177;48.914;18.160;2023-05-22T22:11:44;983.3;;;16.5;100
56272;BME280;42177;48.914;18.160;2023-05-22T22:16:44;983.3;;;16.6;100
56272;BME280;42177;48.914;18.160;2023-05-22T22:21:44;983.3;;;16.6;100
56272;BME280;42177;48.914;18.160;2023-05-22T22:26:44;983.3;;;16.3;100
56272;BME280;42177;48.914;18.160;2023-05-22T22:31:44;983.3;;;16.3;100
56272;BME280;42177;48.914;18.160;2023-05-22T22:36:44;983.4;;;16.5;100
56272;BME280;42177;48.914;18.160;2023-05-22T22:41:44;983.4;;;16.5;100
56272;BME280;42177;48.914;18.160;2023-05-22T22:46:44;983.4;;;16.2;100
56272;BME280;42177;48.914;18.160;2023-05-22T22:51:44;983.4;;;16.2;100
56272;BME280;42177;48.914;18.160;2023-05-22T22:56:44;983.4;;;16.1;100
56272;BME280;42177;48.914;18.160;2023-05-22T23:01:44;983.4;;;16.1;100
56272;BME280;42177;48.914;18.160;2023-05-22T23:06:44;983.4;;;16;100
56272;BME280;42177;48.914;18.160;2023-05-22T23:11:44;983.4;;;16;100
56272;BME280;42177;48.914;18.160;2023-05-22T23:16:44;983.4;;;15.6;100
56272;BME280;42177;48.914;18.160;2023-05-22T23:21:45;983.4;;;15.6;100
56272;BME280;42177;48.914;18.160;2023-05-22T23:26:44;983.2;;;15.8;100
56272;BME280;42177;48.914;18.160;2023-05-22T23:31:44;983.2;;;15.8;100
56272;BME280;42177;48.914;18.160;2023-05-22T23:36:44;983.2;;;15.7;100
56272;BME280;42177;48.914;18.160;2023-05-22T23:41:44;983.2;;;15.7;100
56272;BME280;42177;48.914;18.160;2023-05-22T23:46:44;983.2;;;15.8;100
56272;BME280;42177;48.914;18.160;2023-05-22T23:51:44;983.2;;;15.8;100
56272;BME280;42177;48.914;18.160;2023-05-22T23:56:44;983.2;;;15.6;100
